Flight Track Log - Related Links

Times and Time Zones

All times are in EDT time to prevent confusion due to time zone crossing. See the WJA426 flight status page for this flight to view local times or setup timezone preferences in your user account.

Time Position Orientation Groundspeed Altitude Reporting Facility
EDT Latitude Longitude Course Direction KTS MPH feet Rate Location/Type
Sat 02:37:34 AM 53.3167 -113.5833 90° East 180 207 3,500  Level Edmonton Center
Sat 02:38:34 AM 53.3333 -113.5000 71° East 210 242 5,400 1,900 Climbing Edmonton Center
Sat 02:39:34 AM 53.3333 -113.3833 90° East 250 288 7,300 2,150 Climbing Edmonton Center
Sat 02:40:00 AM 53.2426 -112.9354 90° East  Level Estimated
Sat 02:40:34 AM 53.3000 -113.2667 116° Southeast 280 322 9,700  Level Edmonton Center
Sat 02:41:00 AM 53.2195 -112.7211 106° East  Level Estimated
Sat 02:41:34 AM 53.2667 -113.1167 110° East 320 368 11,100  Level Edmonton Center
Sat 02:42:00 AM 53.1960 -112.5071 90° East  Level Estimated
Sat 02:42:34 AM 53.2333 -112.9667 110° East 350 403 13,000  Level Edmonton Center
Sat 02:43:34 AM 53.2000 -112.8167 110° East 370 426 15,600 2,500 Climbing Edmonton Center
Sat 02:44:34 AM 53.1500 -112.6833 122° Southeast 380 437 18,000 2,000 Climbing Edmonton Center
Sat 02:45:34 AM 53.1000 -112.5000 114° Southeast 390 449 19,600 1,850 Climbing Edmonton Center
Sat 02:46:34 AM 53.0667 -112.3167 107° East 400 460 21,700 1,950 Climbing Edmonton Center
Sat 02:47:34 AM 53.0000 -112.1667 126° Southeast 410 472 23,500 1,750 Climbing Edmonton Center
Sat 02:48:34 AM 52.9667 -111.9667 105° East 420 483 25,200 1,600 Climbing Edmonton Center
Sat 02:49:34 AM 52.9167 -111.7833 114° Southeast 430 495 26,700 1,400 Climbing Edmonton Center
Sat 02:50:34 AM 52.8500 -111.6000 121° Southeast 440 506 28,000 1,100 Climbing Edmonton Center
Sat 02:51:34 AM 52.8000 -111.4000 112° Southeast 450 518 28,900 1,000 Climbing Edmonton Center
Sat 02:52:34 AM 52.7333 -111.2167 121° Southeast 470 541 30,000 1,300 Climbing Edmonton Center
Sat 02:53:34 AM 52.6833 -111.0167 112° Southeast 470 541 31,500 1,300 Climbing Edmonton Center
Sat 02:54:34 AM 52.6167 -110.8167 119° Southeast 470 541 32,600 950 Climbing Edmonton Center
Sat 02:55:34 AM 52.5667 -110.6167 112° Southeast 470 541 33,400 850 Climbing Edmonton Center
Sat 02:56:34 AM 52.5000 -110.4333 121° Southeast 470 541 34,300 800 Climbing Edmonton Center
Sat 02:57:34 AM 52.4500 -110.2333 112° Southeast 470 541 35,000 362 Climbing Edmonton Center
Sat 02:58:30 AM 52.4000 -110.0833 119° Southeast 480 552 35,000  Level Winnipeg Center
Sat 02:59:30 AM 52.3500 -109.9000 114° Southeast 480 552 35,000  Level Winnipeg Center
Sat 03:00:30 AM 52.2833 -109.7167 121° Southeast 470 541 35,000  Level Winnipeg Center
Sat 03:01:30 AM 52.2333 -109.5000 111° Southeast 470 541 35,000  Level Winnipeg Center
Sat 03:02:30 AM 52.1667 -109.3167 121° Southeast 470 541 35,000  Level Winnipeg Center
Sat 03:03:30 AM 52.1167 -109.1333 114° Southeast 470 541 35,000  Level Winnipeg Center
Sat 03:04:30 AM 52.0500 -108.9500 121° Southeast 470 541 35,000  Level Winnipeg Center
Sat 03:05:30 AM 51.9833 -108.7500 118° Southeast 470 541 35,000  Level Winnipeg Center
Sat 03:06:30 AM 51.9333 -108.5667 114° Southeast 480 552 35,000  Level Winnipeg Center
Sat 03:07:30 AM 51.8667 -108.3500 116° Southeast 480 552 35,000  Level Winnipeg Center
Sat 03:08:30 AM 51.8000 -108.1833 123° Southeast 470 541 35,000  Level Winnipeg Center
Sat 03:09:30 AM 51.7333 -108.0000 120° Southeast 480 552 35,000  Level Winnipeg Center
Sat 03:10:30 AM 51.6667 -107.8167 120° Southeast 470 541 35,000  Level Winnipeg Center
Sat 03:11:30 AM 51.6167 -107.6333 114° Southeast 470 541 35,000  Level Winnipeg Center
Sat 03:12:30 AM 51.5500 -107.4333 118° Southeast 480 552 35,000  Level Winnipeg Center
Sat 03:13:30 AM 51.4833 -107.2500 120° Southeast 470 541 35,000  Level Winnipeg Center
Sat 03:14:30 AM 51.4167 -107.0500 118° Southeast 470 541 35,000  Level Winnipeg Center
Sat 03:15:30 AM 51.3667 -106.8833 116° Southeast 470 541 35,000  Level Winnipeg Center
Sat 03:16:30 AM 51.3000 -106.7000 120° Southeast 470 541 35,000  Level Winnipeg Center
Sat 03:17:30 AM 51.2333 -106.5333 123° Southeast 470 541 35,000  Level Winnipeg Center
Sat 03:18:30 AM 51.1833 -106.3333 112° Southeast 470 541 35,000  Level Winnipeg Center
Sat 03:19:30 AM 51.1000 -106.1500 126° Southeast 480 552 35,000  Level Winnipeg Center
Sat 03:20:30 AM 51.0333 -105.9833 122° Southeast 480 552 35,000  Level Winnipeg Center
Sat 03:21:30 AM 50.9667 -105.7833 118° Southeast 480 552 35,000  Level Winnipeg Center
Sat 03:22:30 AM 50.9000 -105.6000 120° Southeast 480 552 35,000  Level Winnipeg Center
Sat 03:23:30 AM 50.8333 -105.4333 122° Southeast 470 541 35,000  Level Winnipeg Center
Sat 03:24:30 AM 50.7667 -105.2333 118° Southeast 480 552 35,000  Level Winnipeg Center
Sat 03:25:30 AM 50.7000 -105.0667 122° Southeast 480 552 35,000  Level Winnipeg Center
Sat 03:26:30 AM 50.6500 -104.9000 115° Southeast 480 552 35,000  Level Winnipeg Center
Sat 03:27:30 AM 50.6000 -104.6667 109° East 470 541 35,000  Level Winnipeg Center
Sat 03:28:30 AM 50.5500 -104.4833 113° Southeast 470 541 35,000  Level Winnipeg Center
Sat 03:29:30 AM 50.5000 -104.2833 111° Southeast 470 541 35,000  Level Winnipeg Center
Sat 03:30:30 AM 50.4667 -104.1000 106° East 480 552 35,000  Level Winnipeg Center
Sat 03:31:30 AM 50.4000 -103.9000 118° Southeast 480 552 35,000  Level Winnipeg Center
Sat 03:33:30 AM 50.3167 -103.5000 108° East 480 552 35,000  Level Winnipeg Center
Sat 03:34:30 AM 50.2667 -103.3000 111° Southeast 480 552 35,000  Level Winnipeg Center
Sat 03:35:30 AM 50.2167 -103.1167 113° Southeast 480 552 35,000  Level Winnipeg Center
Sat 03:36:30 AM 50.1833 -102.9333 106° East 480 552 35,000  Level Winnipeg Center
Sat 03:37:30 AM 50.1167 -102.7167 116° Southeast 480 552 35,000  Level Winnipeg Center
Sat 03:38:30 AM 50.0833 -102.5167 104° East 480 552 35,000  Level Winnipeg Center
Sat 03:39:30 AM 50.0167 -102.3333 119° Southeast 480 552 35,000  Level Winnipeg Center
Sat 03:40:30 AM 49.9833 -102.1500 106° East 480 552 35,000  Level Winnipeg Center
Sat 03:41:30 AM 49.9167 -101.9500 117° Southeast 480 552 35,000  Level Winnipeg Center
Sat 03:42:30 AM 49.8667 -101.7500 111° Southeast 480 552 35,000  Level Winnipeg Center
Sat 03:43:30 AM 49.8167 -101.5500 111° Southeast 480 552 35,000  Level Winnipeg Center
Sat 03:44:30 AM 49.7667 -101.3667 113° Southeast 480 552 35,000  Level Winnipeg Center
Sat 03:45:30 AM 49.7167 -101.1833 113° Southeast 480 552 35,000  Level Winnipeg Center
Sat 03:46:30 AM 49.6667 -100.9667 110° East 480 552 35,000  Level Winnipeg Center
Sat 03:47:30 AM 49.6167 -100.7833 113° Southeast 490 564 35,000  Level Winnipeg Center
Sat 03:48:30 AM 49.5500 -100.6000 119° Southeast 490 564 35,000  Level Winnipeg Center
Sat 03:49:30 AM 49.5167 -100.4000 104° East 490 564 35,000  Level Winnipeg Center
Sat 03:50:30 AM 49.4500 -100.2000 117° Southeast 490 564 35,000  Level Winnipeg Center
Sat 03:51:30 AM 49.4000 -100.0333 115° Southeast 490 564 35,000  Level Winnipeg Center
Sat 03:52:30 AM 49.3333 -99.8333 117° Southeast 490 564 35,000  Level Winnipeg Center
Sat 03:53:30 AM 49.2833 -99.6333 111° Southeast 490 564 35,000  Level Winnipeg Center
Sat 03:54:30 AM 49.2333 -99.4500 113° Southeast 490 564 35,000  Level Winnipeg Center
Sat 03:55:30 AM 49.1667 -99.2500 117° Southeast 490 564 35,000  Level Winnipeg Center
Sat 03:56:30 AM 49.1167 -99.0667 113° Southeast 490 564 35,000  Level Winnipeg Center
Sat 03:57:30 AM 49.0667 -98.8833 113° Southeast 490 564 35,000  Level Winnipeg Center
Sat 03:58:30 AM 49.0167 -98.7000 113° Southeast 480 552 35,000  Level Winnipeg Center
Sat 03:59:30 AM 48.9500 -98.5167 119° Southeast 490 564 35,000  Level Winnipeg Center
Sat 04:00:30 AM 48.9000 -98.3167 111° Southeast 490 564 35,000  Level Winnipeg Center
Sat 04:01:30 AM 48.8333 -98.1333 119° Southeast 490 564 35,000  Level Winnipeg Center
Sat 04:02:30 AM 48.7667 -97.9333 117° Southeast 490 564 35,000  Level Winnipeg Center
Sat 04:03:30 AM 48.7167 -97.7500 112° Southeast 490 564 35,000  Level Winnipeg Center
Sat 04:04:30 AM 48.6667 -97.5667 112° Southeast 490 564 35,000  Level Winnipeg Center
Sat 04:05:30 AM 48.6000 -97.4000 121° Southeast 490 564 35,000  Level Winnipeg Center
Sat 04:06:30 AM 48.5500 -97.2167 112° Southeast 490 564 35,000  Level Winnipeg Center
Sat 04:07:41 AM 48.4972 -96.9981 110° East 489 563 35,000  Level Minneapolis Center
Sat 04:08:41 AM 48.4375 -96.8139 116° Southeast 489 563 35,000  Level Minneapolis Center
Sat 04:09:41 AM 48.3778 -96.6306 116° Southeast 489 563 35,000  Level Minneapolis Center
Sat 04:10:42 AM 48.3161 -96.4439 116° Southeast 492 566 35,000  Level Minneapolis Center
Sat 04:11:42 AM 48.2553 -96.2578 116° Southeast 493 567 35,000  Level Minneapolis Center
Sat 04:12:43 AM 48.1936 -96.0739 117° Southeast 493 567 35,000  Level Minneapolis Center
Sat 04:13:43 AM 48.1317 -95.8906 117° Southeast 493 567 35,000  Level Minneapolis Center
Sat 04:14:43 AM 48.0692 -95.7075 117° Southeast 493 567 35,000  Level Minneapolis Center
Sat 04:15:44 AM 48.0075 -95.5239 117° Southeast 493 567 35,000  Level Minneapolis Center
Sat 04:16:44 AM 47.9411 -95.3292 117° Southeast 493 567 35,000  Level Minneapolis Center
Sat 04:17:45 AM 47.8769 -95.1458 118° Southeast 494 568 35,000  Level Minneapolis Center
Sat 04:18:45 AM 47.8153 -94.9642 117° Southeast 494 568 35,000  Level Minneapolis Center
Sat 04:19:45 AM 47.7531 -94.7825 117° Southeast 494 568 35,000  Level Minneapolis Center
Sat 04:20:46 AM 47.6881 -94.6022 118° Southeast 494 568 35,000  Level Minneapolis Center
Sat 04:21:46 AM 47.6236 -94.4203 118° Southeast 496 571 35,000  Level Minneapolis Center
Sat 04:22:47 AM 47.5594 -94.2389 118° Southeast 497 572 35,000  Level Minneapolis Center
Sat 04:23:47 AM 47.4953 -94.0561 117° Southeast 499 574 35,000  Level Minneapolis Center
Sat 04:24:47 AM 47.4303 -93.8778 118° Southeast 499 574 35,000  Level Minneapolis Center
Sat 04:25:48 AM 47.3656 -93.7003 118° Southeast 498 573 35,000  Level Minneapolis Center
Sat 04:26:48 AM 47.3019 -93.5222 118° Southeast 498 573 35,000  Level Minneapolis Center
Sat 04:27:49 AM 47.2372 -93.3489 119° Southeast 497 572 35,000  Level Minneapolis Center
Sat 04:28:49 AM 47.1725 -93.1772 119° Southeast 496 571 35,000  Level Minneapolis Center
Sat 04:29:49 AM 47.1075 -93.0042 119° Southeast 495 570 35,000  Level Minneapolis Center
Sat 04:30:50 AM 47.0419 -92.8306 119° Southeast 494 568 35,000  Level Minneapolis Center
Sat 04:31:50 AM 46.9761 -92.6569 119° Southeast 494 568 35,000  Level Minneapolis Center
Sat 04:32:50 AM 46.9089 -92.4806 119° Southeast 495 570 35,000  Level Minneapolis Center
Sat 04:33:51 AM 46.8414 -92.3056 119° Southeast 495 570 35,000  Level Minneapolis Center
Sat 04:34:51 AM 46.7633 -92.0928 118° Southeast 495 570 35,000  Level Minneapolis Center
Sat 04:35:51 AM 46.7075 -91.9053 113° Southeast 499 574 35,000  Level Minneapolis Center
Sat 04:36:52 AM 46.6511 -91.7197 114° Southeast 501 577 35,000  Level Minneapolis Center
Sat 04:37:52 AM 46.5928 -91.5406 115° Southeast 501 577 35,000  Level Minneapolis Center
Sat 04:38:52 AM 46.5344 -91.3572 115° Southeast 501 577 35,000  Level Minneapolis Center
Sat 04:39:53 AM 46.4750 -91.1736 115° Southeast 501 577 35,000  Level Minneapolis Center
Sat 04:40:53 AM 46.4150 -90.9914 115° Southeast 501 577 35,000  Level Minneapolis Center
Sat 04:41:53 AM 46.3556 -90.8094 115° Southeast 501 577 35,000  Level Minneapolis Center
Sat 04:42:54 AM 46.2969 -90.6281 115° Southeast 501 577 35,000  Level Minneapolis Center
Sat 04:43:54 AM 46.2356 -90.4456 116° Southeast 502 578 35,000  Level Minneapolis Center
Sat 04:44:55 AM 46.1753 -90.2658 116° Southeast 502 578 35,000  Level Minneapolis Center
Sat 04:45:55 AM 46.1144 -90.0850 116° Southeast 502 578 35,000  Level Minneapolis Center
Sat 04:46:55 AM 46.0533 -89.9050 116° Southeast 502 578 35,000  Level Minneapolis Center
Sat 04:47:56 AM 45.9922 -89.7275 116° Southeast 502 578 35,000  Level Minneapolis Center
Sat 04:48:56 AM 45.9344 -89.5583 116° Southeast 502 578 35,000  Level Minneapolis Center
Sat 04:49:57 AM 45.8681 -89.3614 116° Southeast 502 578 35,000  Level Minneapolis Center
Sat 04:50:57 AM 45.8056 -89.1842 117° Southeast 502 578 35,000  Level Minneapolis Center
Sat 04:51:57 AM 45.7436 -89.0086 117° Southeast 500 575 35,000  Level Minneapolis Center
Sat 04:52:58 AM 45.6858 -88.8478 117° Southeast 499 574 35,000  Level Minneapolis Center
Sat 04:53:58 AM 45.6108 -88.6364 117° Southeast 499 574 35,000  Level Minneapolis Center
Sat 04:54:59 AM 45.5481 -88.4597 117° Southeast 499 574 35,000  Level Minneapolis Center
Sat 04:55:59 AM 45.4844 -88.2836 117° Southeast 499 574 35,000  Level Minneapolis Center
Sat 04:56:59 AM 45.4208 -88.1097 117° Southeast 501 577 35,000  Level Minneapolis Center
Sat 04:58:00 AM 45.3569 -87.9325 117° Southeast 503 579 35,000  Level Minneapolis Center
Sat 04:59:00 AM 45.2911 -87.7558 118° Southeast 505 581 35,000  Level Minneapolis Center
Sat 05:00:00 AM 45.2256 -87.5789 118° Southeast 506 582 35,000  Level Minneapolis Center
Sat 05:01:01 AM 45.1600 -87.4008 118° Southeast 508 585 35,000  Level Minneapolis Center
Sat 05:02:01 AM 45.0947 -87.2264 118° Southeast 506 582 35,000  Level Minneapolis Center
Sat 05:03:02 AM 45.0286 -87.0544 119° Southeast 504 580 35,000  Level Minneapolis Center
Sat 05:04:02 AM 44.9633 -86.8803 118° Southeast 502 578 35,000  Level Minneapolis Center
Sat 05:05:02 AM 44.8917 -86.6942 118° Southeast 503 579 35,000  Level Minneapolis Center
Sat 05:06:03 AM 44.8256 -86.5211 118° Southeast 503 579 35,000  Level Minneapolis Center
Sat 05:07:03 AM 44.7581 -86.3458 118° Southeast 503 579 35,000  Level Minneapolis Center
Sat 05:08:04 AM 44.6897 -86.1700 119° Southeast 508 585 35,000  Level Minneapolis Center
Sat 05:09:04 AM 44.6214 -85.9969 119° Southeast 508 585 35,000  Level Minneapolis Center
Sat 05:10:04 AM 44.5650 -85.8519 119° Southeast 507 583 35,000  Level Minneapolis Center
Sat 05:11:05 AM 44.4833 -85.6472 119° Southeast 507 583 35,000  Level Minneapolis Center
Sat 05:12:05 AM 44.4161 -85.4783 119° Southeast 504 580 35,000  Level Minneapolis Center
Sat 05:13:05 AM 44.3481 -85.3100 119° Southeast 502 578 35,000  Level Minneapolis Center
Sat 05:14:06 AM 44.2822 -85.1439 119° Southeast 495 570 35,000  Level Minneapolis Center
Sat 05:15:06 AM 44.2131 -84.9764 120° Southeast 495 570 35,000  Level Minneapolis Center
Sat 05:16:06 AM 44.1444 -84.8075 119° Southeast 499 574 35,000  Level Minneapolis Center
Sat 05:17:07 AM 44.0753 -84.6397 120° Southeast 499 574 35,000  Level Minneapolis Center
Sat 05:18:07 AM 44.0069 -84.4714 119° Southeast 499 574 35,000  Level Minneapolis Center
Sat 05:19:07 AM 43.9361 -84.3050 121° Southeast 499 574 35,000  Level Minneapolis Center
Sat 05:20:08 AM 43.8656 -84.1375 120° Southeast 499 574 35,000  Level Minneapolis Center
Sat 05:21:08 AM 43.7950 -83.9706 120° Southeast 499 574 35,000  Level Minneapolis Center
Sat 05:22:08 AM 43.7244 -83.8047 120° Southeast 499 574 35,000  Level Minneapolis Center
Sat 05:23:08 AM 43.6550 -83.6397 120° Southeast 499 574 35,000  Level Minneapolis Center
Sat 05:24:09 AM 43.5969 -83.4617 114° Southeast 506 582 35,000  Level Minneapolis Center
Sat 05:25:09 AM 43.5914 -83.2658 92° East 527 606 35,000  Level Minneapolis Center
Sat 05:26:09 AM 43.5842 -83.0689 93° East 520 598 35,000 -149 Level Minneapolis Center
Sat 05:27:10 AM 43.5767 -82.8708 93° East 519 597 34,700 -1,190 Descending Minneapolis Center
Sat 05:28:10 AM 43.5697 -82.6772 93° East 513 590 32,600 -2,100 Descending Minneapolis Center
Sat 05:29:10 AM 43.5608 -82.4864 94° East 505 581 30,500 -1,785 Descending Minneapolis Center
Sat 05:30:11 AM 43.5531 -82.3019 93° East 490 564 29,000 -893 Descending Minneapolis Center
Sat 05:31:11 AM 43.5472 -82.1244 93° East 470 541 28,700 -1,565 Descending Minneapolis Center
Sat 05:32:29 AM 43.5333 -81.8667 94° East 470 541 25,400 -2,435 Descending Toronto Center
Sat 05:33:29 AM 43.5167 -81.7000 98° East 470 541 23,100 -2,250 Descending Toronto Center
Sat 05:34:29 AM 43.5000 -81.5167 97° East 460 529 20,900 -1,800 Descending Toronto Center
Sat 05:35:29 AM 43.5000 -81.3500 90° East 440 506 19,500 -1,700 Descending Toronto Center
Sat 05:36:29 AM 43.4833 -81.2000 99° East 410 472 17,500 -1,750 Descending Toronto Center
Sat 05:37:29 AM 43.4833 -81.0500 90° East 390 449 16,000 -1,450 Descending Toronto Center
Sat 05:38:29 AM 43.4667 -80.9167 100° East 380 437 14,600 -1,450 Descending Toronto Center
Sat 05:39:29 AM 43.4833 -80.7833 80° East 360 414 13,100 -1,450 Descending Toronto Center
Sat 05:40:29 AM 43.4667 -80.6500 100° East 350 403 11,700 -1,400 Descending Toronto Center
Sat 05:41:29 AM 43.4667 -80.5000 90° East 340 391 10,300 -1,300 Descending Toronto Center
Sat 05:42:29 AM 43.4500 -80.3667 100° East 330 380 9,100 -1,250 Descending Toronto Center
Sat 05:43:29 AM 43.4667 -80.2500 79° East 320 368 7,800 -1,050 Descending Toronto Center
Sat 05:44:29 AM 43.4833 -80.1333 79° East 310 357 7,000 -850 Descending Toronto Center
Sat 05:45:29 AM 43.4667 -80.0500 105° East 280 322 6,100 -850 Descending Toronto Center
Sat 05:46:29 AM 43.4667 -79.9500 90° East 270 311 5,300 -550 Descending Toronto Center
Sat 05:47:29 AM 43.4833 -79.8667 75° East 260 299 5,000 -450 Descending Toronto Center
Sat 05:48:29 AM 43.5167 -79.8000 55° Northeast 220 253 4,400 -800 Descending Toronto Center
Sat 05:49:29 AM 43.5500 -79.7500 47° Northeast 190 219 3,400 -1,000 Descending Toronto Center
Sat 05:50:29 AM 43.5833 -79.7000 47° Northeast 190 219 2,400 -950 Descending Toronto Center
Sat 05:51:29 AM 43.6167 -79.6500 47° Northeast 160 184 1,500 -850 Descending Toronto Center
Sat 05:52:29 AM 43.6500 -79.6167 36° Northeast 140 161 700 -800 Descending Toronto Center

Login

Don't have an account? Register now (free) for customized features, flight alerts, and more!